Amherst, MA (01003)

2:25 PM EDT on August 20, 2014 (GMT -0400)
North Amherst | Change Station
CLOSE
Current Station
Personal Weather Station
Location: Amherst, MA
Elevation: 223 ft
Nearby Weather Stations

Elev 223 ft 42.42 °N, 72.52 °W | Updated 5 minutes ago

Scattered Clouds
Scattered Clouds
82.2 °F
Feels Like 84 °F
N
0.0
Wind Variable Wind from North
Gusts 3.0 mph

Today
High -- | Low -- °F
--% Chance of Precip.
Yesterday
High -- | Low -- °F
Precip. -- in
6:02 AM 7:43 PM
Waning Crescent, 20% visible
Pressure 30.01 in
Visibility 10.0 miles
Clouds Few 4000 ft
Scattered Clouds 25000 ft
Heat Index 84 °F
Dew Point 65 °F
Humidity 57%
Rainfall 0.00 in
Snow Depth Not available.
UV 7 out of 12
Pollen 9.20 out of 12
Air Quality Not available.
Flu Activity Not available.
METAR KCEF 201758Z VRB03KT 10SM FEW040 SCT250 27/16 A2999 RMK AO2A SLP161 T02700157 10275 20152 57009

More Conditions Fewer Conditions

Pressure 30.01 in
Visibility 10.0 miles
Clouds Few 4000 ft
Scattered Clouds 25000 ft
Heat Index 84 °F
Dew Point 65 °F
Humidity 57%
Rainfall 0.00 in
Snow Depth Not available.
UV 7 out of 12
Pollen 9.20 out of 12
Air Quality Not available.
Flu Activity Not available.
METAR KCEF 201758Z VRB03KT 10SM FEW040 SCT250 27/16 A2999 RMK AO2A SLP161 T02700157 10275 20152 57009

More Conditions Fewer Conditions

10-Day Weather Forecast

Almanac

Astronomy

Aug. 20, 2014 Rise Set
Actual Time 6:02 AM EDT 7:43 PM EDT
Civil Twilight 5:32 AM EDT 8:13 PM EDT
Nautical Twilight 4:56 AM EDT 8:49 PM EDT
Astronomical Twilight 4:17 AM EDT 9:28 PM EDT
Moon 1:37 AM EDT 4:28 PM EDT
Length of Visible Light 14h 40m
Length of Day
13h 41m
Tomorrow will be 2m 38s shorter.
Waning Crescent, 20% of the Moon is Illuminated
Today
Waning Crescent
Aug 25
New
Sep 2
First Quarter
Sep 8
Full
Sep 15
Last Quarter

Today's Extremes

State Highs State Lows

Community

WunderPhotos

Upload Photos

1,745,704 photos uploaded!

WunderBlogs® & News

Nearby

Air Quality

  Air Quality AQ Index Pollutant
Wednesday Good
PM2.5
Wednesday Good
OZONE

Snow Depth

Station Depth Elevation
No new snow has been reported.

Earthquake Activity

City Distance Mag. Time & Date
Deep River Center, Connecticut 73 miles 2.7 3:09 AM EDT
2014-08-14
Minimum magnitude displayed is 2.5.

Coastal Water Temperatures

Place Temperature
No Stations Reporting

Nearby Weather Stations